Time;durP1;ratioP1;P1;durP2;ratioP2;P2;SDS_P1;SDS_P2;PMS_P1;PMS_P2;Temp;Humidity;BMP_temperature;BMP_pressure;BME280_temperature;BME280_humidity;BME280_pressure;Samples;Min_cycle;Max_cycle;Signal;HPM_P1;HPM_P2
2021/07/07 00:00:45;;;;;;;12.13;8.68;;;;;;;18.26;78.35;94988.69;5086389;28;20047;-68
2021/07/07 00:03:12;;;;;;;9.85;7.90;;;;;;;18.24;78.49;94993.44;5087452;28;20431;-67
2021/07/07 00:05:38;;;;;;;9.38;7.85;;;;;;;18.19;78.62;94989.00;5086425;28;20588;-67
2021/07/07 00:08:05;;;;;;;9.55;8.02;;;;;;;18.15;78.33;94991.41;5087139;28;20043;-67
2021/07/07 00:10:34;;;;;;;9.52;8.52;;;;;;;18.09;77.75;94981.16;5087218;28;20042;-67
2021/07/07 00:13:02;;;;;;;9.98;8.18;;;;;;;18.17;78.82;94992.97;5086931;28;20063;-67
2021/07/07 00:15:33;;;;;;;10.05;7.45;;;;;;;18.11;78.85;94990.38;5086696;28;20059;-68
2021/07/07 00:18:03;;;;;;;11.25;7.72;;;;;;;18.02;78.85;94992.00;5087015;28;20545;-68
2021/07/07 00:20:38;;;;;;;9.48;7.28;;;;;;;17.97;79.18;94986.78;5087248;28;20051;-67
2021/07/07 00:23:05;;;;;;;11.18;7.50;;;;;;;17.99;79.35;94989.94;5091537;28;20516;-67
2021/07/07 00:25:32;;;;;;;9.23;7.38;;;;;;;17.89;79.13;94976.81;5089812;28;20046;-67
2021/07/07 00:27:59;;;;;;;9.50;7.88;;;;;;;17.88;79.33;94988.41;5089890;28;20028;-67
2021/07/07 00:30:27;;;;;;;11.75;7.95;;;;;;;17.84;79.60;94989.97;5091657;28;20525;-68
2021/07/07 00:32:55;;;;;;;9.95;8.48;;;;;;;17.73;80.22;94990.03;5092879;28;20044;-67
2021/07/07 00:35:23;;;;;;;10.25;7.78;;;;;;;17.69;81.00;94996.13;5087061;28;20115;-67
2021/07/07 00:37:50;;;;;;;11.07;8.13;;;;;;;17.70;80.43;95000.31;5086920;28;20494;-68
2021/07/07 00:40:17;;;;;;;10.95;8.68;;;;;;;17.66;80.92;95000.06;5085703;28;20133;-68
2021/07/07 00:42:44;;;;;;;15.52;8.77;;;;;;;17.57;81.51;94996.44;5085635;28;20089;-67
2021/07/07 00:45:13;;;;;;;12.35;8.98;;;;;;;17.62;80.87;94993.78;5085454;28;20044;-67
2021/07/07 00:47:42;;;;;;;11.15;8.23;;;;;;;17.55;81.76;94990.66;5085445;28;20039;-68
2021/07/07 00:50:09;;;;;;;10.65;8.25;;;;;;;17.44;81.67;94975.97;5088980;28;20036;-68
2021/07/07 00:52:37;;;;;;;8.63;7.70;;;;;;;17.46;81.08;94987.00;5089502;28;20049;-68
2021/07/07 00:55:07;;;;;;;10.40;8.40;;;;;;;17.46;81.09;95000.19;5089285;28;20035;-68
2021/07/07 00:57:35;;;;;;;9.55;7.72;;;;;;;17.43;81.48;94995.44;5071574;28;20055;-68
2021/07/07 01:00:14;;;;;;;10.15;9.10;;;;;;;17.37;81.86;95003.34;5089142;28;20123;-68
2021/07/07 01:02:44;;;;;;;10.57;8.13;;;;;;;17.29;81.12;94990.75;5089876;28;20054;-68
2021/07/07 01:05:13;;;;;;;9.13;7.82;;;;;;;17.24;81.42;95003.16;5089253;28;20044;-67
2021/07/07 01:07:41;;;;;;;11.60;8.95;;;;;;;17.17;82.13;94998.16;5088778;28;20039;-67
2021/07/07 01:10:10;;;;;;;13.32;9.13;;;;;;;17.11;82.35;94999.25;5088794;28;20036;-67
2021/07/07 01:12:38;;;;;;;12.35;8.95;;;;;;;16.94;82.44;94984.56;5085727;28;20543;-68
2021/07/07 01:15:08;;;;;;;10.05;8.52;;;;;;;17.06;83.05;95001.91;5087531;28;20421;-68
2021/07/07 01:17:35;;;;;;;9.48;8.48;;;;;;;17.02;82.92;94991.13;5086330;28;20122;-68
2021/07/07 01:20:11;;;;;;;12.23;9.15;;;;;;;16.97;83.50;94994.53;5090414;28;20119;-68
2021/07/07 01:22:40;;;;;;;11.10;9.07;;;;;;;16.81;84.55;94995.59;5092023;28;20043;-68
2021/07/07 01:25:08;;;;;;;12.93;8.45;;;;;;;16.75;84.38;94988.78;5088610;28;20044;-68
2021/07/07 01:27:36;;;;;;;13.55;9.25;;;;;;;16.75;84.43;94994.03;5088606;28;20168;-68
2021/07/07 01:30:05;;;;;;;11.85;9.02;;;;;;;16.80;84.42;95004.56;5087462;28;20048;-67
2021/07/07 01:32:32;;;;;;;13.18;10.30;;;;;;;16.77;85.05;94999.81;5085611;28;20131;-67
2021/07/07 01:34:59;;;;;;;12.68;9.63;;;;;;;16.75;85.54;95004.56;5090070;28;20048;-67
2021/07/07 01:37:27;;;;;;;10.88;9.05;;;;;;;16.77;85.44;95005.06;5070330;28;20036;-68
2021/07/07 01:39:54;;;;;;;9.45;8.43;;;;;;;16.68;86.43;95006.66;5084569;28;20054;-67
2021/07/07 01:42:21;;;;;;;11.45;9.48;;;;;;;16.71;86.44;94998.22;5084494;28;20050;-67
2021/07/07 01:44:47;;;;;;;16.08;10.70;;;;;;;16.68;86.06;94996.16;5085462;28;20128;-67
2021/07/07 01:47:14;;;;;;;14.95;9.25;;;;;;;16.71;85.46;95006.13;5068652;28;20036;-67
2021/07/07 01:49:41;;;;;;;11.43;9.35;;;;;;;16.77;85.02;95010.34;5088848;28;20040;-67
2021/07/07 01:52:08;;;;;;;10.50;9.23;;;;;;;16.70;84.83;94994.03;5089434;28;20043;-68
2021/07/07 01:54:35;;;;;;;11.18;9.90;;;;;;;16.71;84.79;95000.84;5086773;28;20051;-68
2021/07/07 01:57:02;;;;;;;13.73;9.48;;;;;;;16.75;85.33;95015.06;5087242;28;20050;-67
2021/07/07 01:59:28;;;;;;;11.73;10.13;;;;;;;16.60;85.39;94993.00;5088810;28;20489;-68
2021/07/07 02:01:55;;;;;;;12.50;10.00;;;;;;;16.67;84.88;94997.19;5088365;28;20036;-67
2021/07/07 02:04:22;;;;;;;14.32;9.85;;;;;;;16.69;84.93;95013.50;5088598;28;20579;-67
2021/07/07 02:06:50;;;;;;;13.75;10.07;;;;;;;16.69;84.73;95018.75;5085485;28;20395;-68
2021/07/07 02:09:19;;;;;;;13.35;8.45;;;;;;;16.59;84.16;94996.66;5084540;28;20040;-68
2021/07/07 02:11:47;;;;;;;15.40;9.65;;;;;;;16.69;83.67;95010.84;5070892;28;20051;-67
2021/07/07 02:14:16;;;;;;;16.35;10.63;;;;;;;16.72;83.52;95016.38;5087757;28;20639;-68
2021/07/07 02:16:43;;;;;;;13.95;8.95;;;;;;;16.71;83.54;95022.69;5088089;28;20047;-67
2021/07/07 02:19:11;;;;;;;11.70;9.88;;;;;;;16.59;83.92;95009.81;5089731;28;20161;-68
2021/07/07 02:21:39;;;;;;;16.35;10.18;;;;;;;16.54;84.40;95016.91;5085099;28;20054;-67
2021/07/07 02:24:06;;;;;;;15.90;10.88;;;;;;;16.54;84.87;95028.22;5085252;28;20097;-68
2021/07/07 02:26:33;;;;;;;15.60;10.57;;;;;;;16.51;84.70;95031.38;5084779;28;20048;-68
2021/07/07 02:29:01;;;;;;;12.18;10.48;;;;;;;16.44;84.22;95022.97;5085092;28;20044;-68
2021/07/07 02:31:27;;;;;;;13.57;10.05;;;;;;;16.49;84.78;95036.09;5086580;28;20119;-67
2021/07/07 02:33:54;;;;;;;11.77;10.35;;;;;;;16.51;85.10;95044.53;5091082;28;20421;-67
2021/07/07 02:36:21;;;;;;;12.73;10.77;;;;;;;16.46;84.12;95041.91;5085080;28;20048;-68
2021/07/07 02:38:48;;;;;;;11.68;9.68;;;;;;;16.43;84.34;95037.94;5084898;28;20039;-68
2021/07/07 02:41:15;;;;;;;17.58;10.35;;;;;;;16.40;84.06;95035.03;5083988;28;20043;-68
2021/07/07 02:43:42;;;;;;;14.88;9.93;;;;;;;16.32;86.32;95040.84;5087219;28;20125;-68
2021/07/07 02:46:09;;;;;;;14.63;9.93;;;;;;;15.95;88.53;95033.94;5085109;28;20433;-67
2021/07/07 02:48:36;;;;;;;11.75;10.40;;;;;;;16.09;87.58;95042.91;5086565;28;20032;-68
2021/07/07 02:51:03;;;;;;;18.00;10.23;;;;;;;16.16;87.08;95048.69;5084822;28;20115;-68
2021/07/07 02:53:30;;;;;;;15.07;9.68;;;;;;;16.22;86.49;95047.66;5088059;28;20046;-67
2021/07/07 02:55:56;;;;;;;11.65;9.38;;;;;;;16.24;85.84;95040.31;5087235;28;20043;-68
2021/07/07 02:58:23;;;;;;;10.63;9.52;;;;;;;16.39;85.33;95047.41;5087372;28;20513;-68
2021/07/07 03:00:51;;;;;;;13.27;10.10;;;;;;;16.43;85.37;95051.09;5086273;28;20048;-67
2021/07/07 03:03:20;;;;;;;17.50;11.10;;;;;;;16.31;84.90;95037.41;5086076;28;20044;-68
2021/07/07 03:05:53;;;;;;;14.70;9.48;;;;;;;16.37;85.76;95054.00;5087758;28;20527;-67
2021/07/07 03:08:22;;;;;;;13.15;10.07;;;;;;;16.30;86.17;95053.47;5089168;28;20044;-67
2021/07/07 03:10:49;;;;;;;13.50;9.43;;;;;;;16.33;86.35;95048.47;5090287;28;20051;-67
2021/07/07 03:13:18;;;;;;;15.77;10.43;;;;;;;16.37;86.04;95049.50;5091240;28;20048;-68
2021/07/07 03:15:46;;;;;;;13.27;9.32;;;;;;;16.39;86.54;95052.66;5093648;28;20065;-68
2021/07/07 03:18:14;;;;;;;10.65;9.35;;;;;;;16.35;86.84;95056.06;5092300;28;20051;-67
2021/07/07 03:20:43;;;;;;;11.45;9.10;;;;;;;16.43;86.20;95068.69;5090273;28;20036;-68
2021/07/07 03:23:13;;;;;;;14.50;10.07;;;;;;;16.43;86.03;95063.44;5105807;27;20134;-68
2021/07/07 03:25:40;;;;;;;12.98;9.65;;;;;;;16.48;84.98;95055.56;5090360;28;20414;-68
2021/07/07 03:28:07;;;;;;;12.27;10.30;;;;;;;16.48;85.38;95066.09;5092793;28;20046;-67
2021/07/07 03:30:34;;;;;;;15.75;9.88;;;;;;;16.41;85.72;95065.56;5090940;28;20453;-68
2021/07/07 03:33:03;;;;;;;14.52;10.38;;;;;;;16.35;86.52;95061.31;5088182;28;20046;-68
2021/07/07 03:35:30;;;;;;;13.75;9.88;;;;;;;16.43;86.97;95063.44;5088336;28;20098;-67
2021/07/07 03:37:57;;;;;;;17.15;12.57;;;;;;;16.42;86.92;95072.38;5089233;28;20040;-68
2021/07/07 03:40:27;;;;;;;15.93;12.45;;;;;;;16.42;87.36;95067.13;5087807;28;20524;-68
2021/07/07 03:42:54;;;;;;;15.57;10.95;;;;;;;16.31;87.70;95060.28;5073783;28;20070;-67
2021/07/07 03:45:21;;;;;;;17.05;12.35;;;;;;;16.41;87.67;95061.06;5069301;28;20040;-68
2021/07/07 03:47:48;;;;;;;13.75;10.52;;;;;;;16.52;87.75;95067.13;5087823;28;20054;-68
2021/07/07 03:50:18;;;;;;;17.80;10.38;;;;;;;16.55;87.34;95074.50;5092087;28;20044;-68
2021/07/07 03:52:45;;;;;;;21.02;11.10;;;;;;;16.48;87.22;95045.06;5087108;28;20036;-67
2021/07/07 03:55:15;;;;;;;17.17;12.52;;;;;;;16.74;86.92;95073.97;5087712;28;20040;-67
2021/07/07 03:57:43;;;;;;;22.05;12.05;;;;;;;16.78;87.07;95072.38;5089916;28;20036;-69
2021/07/07 04:00:14;;;;;;;18.65;12.10;;;;;;;16.82;86.78;95065.56;5071152;28;20438;-68
2021/07/07 04:02:42;;;;;;;19.70;12.13;;;;;;;16.93;86.69;95071.63;5090631;28;20047;-68
2021/07/07 04:05:10;;;;;;;18.58;11.60;;;;;;;17.03;87.57;95078.72;5087393;28;20036;-68
2021/07/07 04:07:39;;;;;;;21.75;13.82;;;;;;;17.03;88.16;95065.56;5091871;28;20074;-68
2021/07/07 04:10:07;;;;;;;19.05;11.15;;;;;;;17.09;88.66;95080.31;5091234;28;20043;-68
2021/07/07 04:12:36;;;;;;;16.45;12.80;;;;;;;17.12;88.89;95074.50;5071272;28;20072;-68
2021/07/07 04:15:07;;;;;;;14.38;10.77;;;;;;;17.19;88.62;95069.75;5089182;28;20497;-68
2021/07/07 04:17:35;;;;;;;15.00;10.52;;;;;;;17.13;88.70;95050.56;5090250;28;20047;-68
2021/07/07 04:20:06;;;;;;;19.90;11.15;;;;;;;17.26;88.92;95069.47;5091568;28;20036;-68
2021/07/07 04:22:34;;;;;;;17.05;11.65;;;;;;;17.31;89.09;95072.88;5090033;28;20497;-68
2021/07/07 04:25:01;;;;;;;18.60;12.20;;;;;;;17.52;88.94;95078.88;5088345;28;20040;-68
2021/07/07 04:27:28;;;;;;;15.82;12.23;;;;;;;17.47;89.14;95070.22;5088371;28;20390;-68
2021/07/07 04:29:55;;;;;;;14.25;11.57;;;;;;;17.69;88.90;95086.47;5091214;28;20040;-68
2021/07/07 04:32:22;;;;;;;13.43;11.95;;;;;;;17.77;88.86;95091.19;5088594;28;20043;-68
2021/07/07 04:34:51;;;;;;;17.17;12.73;;;;;;;17.83;88.49;95083.25;5085671;28;20052;-68
2021/07/07 04:37:18;;;;;;;20.85;11.93;;;;;;;17.98;87.60;95085.84;5087050;28;20060;-68
2021/07/07 04:39:45;;;;;;;15.60;12.80;;;;;;;17.93;87.38;95077.97;5071628;28;20036;-68
2021/07/07 04:42:12;;;;;;;17.10;11.80;;;;;;;18.09;86.16;95087.34;5089576;28;20040;-68
2021/07/07 04:44:39;;;;;;;15.07;11.10;;;;;;;18.06;85.18;95071.31;5085515;28;20036;-68
2021/07/07 04:47:06;;;;;;;13.52;10.52;;;;;;;18.25;85.81;95095.97;5085808;28;20115;-67
2021/07/07 04:49:32;;;;;;;14.98;10.93;;;;;;;18.34;84.68;95093.56;5086873;28;20032;-67
2021/07/07 04:51:59;;;;;;;13.30;10.65;;;;;;;18.31;83.33;95086.19;5086479;28;20111;-68
2021/07/07 04:54:26;;;;;;;14.25;11.18;;;;;;;18.40;83.65;95092.47;5068603;28;20048;-68
2021/07/07 04:56:53;;;;;;;11.55;9.80;;;;;;;18.56;81.46;95098.41;5085873;28;20421;-68
2021/07/07 04:59:20;;;;;;;13.73;10.38;;;;;;;18.62;82.80;95083.34;5067374;28;20048;-69
2021/07/07 05:01:46;;;;;;;14.63;11.43;;;;;;;18.63;82.98;95083.06;5086387;28;20420;-68
2021/07/07 05:04:13;;;;;;;13.25;11.57;;;;;;;18.74;83.91;95091.69;5086179;28;20115;-68
2021/07/07 05:06:40;;;;;;;17.08;11.27;;;;;;;18.79;83.55;95104.84;5086876;28;20072;-68
2021/07/07 05:09:07;;;;;;;19.08;12.40;;;;;;;18.82;83.53;95098.28;5085391;28;20081;-68
2021/07/07 05:11:35;;;;;;;14.98;11.50;;;;;;;18.79;83.95;95094.28;5084724;28;20079;-68
2021/07/07 05:14:02;;;;;;;13.52;10.93;;;;;;;18.88;83.44;95105.84;5067605;28;20055;-68
2021/07/07 05:16:29;;;;;;;13.05;10.68;;;;;;;18.79;82.97;95099.56;5084944;28;20051;-68
2021/07/07 05:18:57;;;;;;;22.73;11.23;;;;;;;18.85;83.60;95103.78;5085556;28;20081;-68
2021/07/07 05:21:24;;;;;;;18.65;11.05;;;;;;;18.83;84.25;95105.91;5083728;28;20047;-67
2021/07/07 05:23:51;;;;;;;24.95;12.25;;;;;;;18.96;84.31;95101.06;5085061;28;20044;-67
2021/07/07 05:26:17;;;;;;;27.73;12.40;;;;;;;18.99;84.37;95097.88;5084036;28;20032;-67
2021/07/07 05:28:44;;;;;;;27.67;10.93;;;;;;;19.10;84.33;95099.34;5085645;28;20529;-68
2021/07/07 05:31:11;;;;;;;32.95;13.05;;;;;;;19.14;83.52;95110.94;5084331;28;20040;-68
2021/07/07 05:33:38;;;;;;;22.75;11.32;;;;;;;19.16;82.30;95103.53;5083568;28;20040;-67
2021/07/07 05:36:06;;;;;;;26.38;13.00;;;;;;;19.24;82.83;95115.34;5084311;28;20047;-67
2021/07/07 05:38:34;;;;;;;31.50;13.10;;;;;;;19.26;81.66;95108.69;5084694;28;20051;-67
2021/07/07 05:41:00;;;;;;;29.20;12.93;;;;;;;19.39;81.83;95122.31;5085301;28;20127;-67
2021/07/07 05:43:28;;;;;;;29.15;12.85;;;;;;;19.53;80.81;95123.22;5085215;28;20046;-67
2021/07/07 05:45:59;;;;;;;21.08;13.50;;;;;;;19.58;80.27;95120.53;5084697;28;20044;-68
2021/07/07 05:48:27;;;;;;;19.67;12.57;;;;;;;19.63;79.13;95117.84;5067680;28;20464;-69
2021/07/07 05:50:54;;;;;;;22.02;12.27;;;;;;;19.69;79.42;95121.22;5085570;28;20044;-68
2021/07/07 05:53:23;;;;;;;20.90;13.98;;;;;;;19.86;78.87;95126.06;5085904;28;20051;-68
2021/07/07 05:55:50;;;;;;;26.70;13.05;;;;;;;19.87;77.70;95114.44;5086345;28;20494;-68
2021/07/07 05:58:17;;;;;;;24.15;14.25;;;;;;;19.93;77.18;95115.94;5085785;28;20048;-68
2021/07/07 06:00:44;;;;;;;22.13;13.10;;;;;;;20.05;77.31;95112.91;5085651;28;20480;-68
2021/07/07 06:03:11;;;;;;;18.23;12.00;;;;;;;20.24;76.52;95120.88;5084858;28;20036;-68
2021/07/07 06:05:38;;;;;;;22.70;11.73;;;;;;;20.26;76.39;95124.00;5085786;28;20101;-68
2021/07/07 06:08:06;;;;;;;18.65;11.00;;;;;;;20.29;75.99;95120.78;5085522;28;20040;-67
2021/07/07 06:10:33;;;;;;;20.88;12.20;;;;;;;20.35;75.34;95110.94;5085441;28;20401;-68
2021/07/07 06:13:00;;;;;;;16.30;11.68;;;;;;;20.52;74.96;95131.59;5085420;28;20059;-68
2021/07/07 06:15:27;;;;;;;16.45;11.65;;;;;;;20.63;74.46;95133.03;5085893;28;20071;-67
2021/07/07 06:17:54;;;;;;;18.02;11.23;;;;;;;20.73;73.98;95140.84;5083907;28;20441;-68
2021/07/07 06:20:23;;;;;;;14.07;10.48;;;;;;;20.86;74.12;95135.91;5086037;28;20534;-69
2021/07/07 06:22:50;;;;;;;16.33;11.07;;;;;;;20.97;73.20;95132.00;5086296;28;20044;-68
2021/07/07 06:25:17;;;;;;;14.75;10.50;;;;;;;21.05;73.06;95134.00;5085621;28;20040;-68
2021/07/07 06:27:44;;;;;;;16.33;9.88;;;;;;;21.15;72.52;95133.03;5085458;28;20043;-67
2021/07/07 06:30:15;;;;;;;13.82;11.25;;;;;;;21.31;71.28;95131.72;5085615;28;20046;-68
2021/07/07 06:32:44;;;;;;;21.33;11.65;;;;;;;21.35;71.82;95131.91;5084539;28;20413;-68
2021/07/07 06:35:12;;;;;;;15.20;10.93;;;;;;;21.40;71.25;95134.47;5085753;28;20044;-67
2021/07/07 06:37:39;;;;;;;18.65;10.77;;;;;;;21.52;71.41;95142.78;5084438;28;20502;-68
2021/07/07 06:40:07;;;;;;;18.60;9.57;;;;;;;21.62;70.85;95130.41;5085147;28;20039;-67
2021/07/07 06:42:34;;;;;;;19.00;10.07;;;;;;;21.71;70.65;95133.94;5083842;28;20048;-68
2021/07/07 06:45:03;;;;;;;19.17;9.85;;;;;;;21.76;70.72;95132.00;5086600;28;20047;-68
2021/07/07 06:47:30;;;;;;;14.98;9.55;;;;;;;21.93;70.79;95136.72;5089097;28;20039;-68
2021/07/07 06:49:57;;;;;;;17.67;9.45;;;;;;;22.04;70.49;95133.84;5089116;28;20036;-67
2021/07/07 06:52:24;;;;;;;16.83;9.40;;;;;;;22.19;69.69;95127.47;5089252;28;20040;-68
2021/07/07 06:54:50;;;;;;;14.07;9.88;;;;;;;22.43;68.68;95121.94;5089363;28;20036;-67
2021/07/07 06:57:18;;;;;;;16.98;10.10;;;;;;;22.58;68.29;95124.25;5089177;28;20042;-68
2021/07/07 06:59:45;;;;;;;14.57;9.82;;;;;;;22.74;66.43;95131.88;5089766;28;20039;-68
2021/07/07 07:02:12;;;;;;;21.23;9.05;;;;;;;22.80;66.50;95128.03;5087919;28;20040;-68
2021/07/07 07:04:39;;;;;;;12.52;9.85;;;;;;;22.84;65.22;95121.78;5088993;28;20123;-68
2021/07/07 07:07:05;;;;;;;21.13;8.35;;;;;;;23.06;66.21;95129.00;5088756;28;20032;-68
2021/07/07 07:09:32;;;;;;;13.20;8.60;;;;;;;23.14;64.89;95124.03;5089118;28;20043;-68
2021/07/07 07:11:59;;;;;;;15.25;8.70;;;;;;;23.33;64.71;95132.59;5088334;28;20414;-67
2021/07/07 07:14:26;;;;;;;17.75;9.43;;;;;;;23.39;63.49;95126.09;5088657;28;20044;-67
2021/07/07 07:16:53;;;;;;;9.45;8.15;;;;;;;23.59;62.60;95130.09;5088808;28;20485;-67
2021/07/07 07:19:20;;;;;;;15.77;9.25;;;;;;;23.54;61.61;95119.56;5088534;28;20037;-67
2021/07/07 07:21:47;;;;;;;11.20;8.40;;;;;;;23.78;60.77;95129.81;5090226;28;20046;-68
2021/07/07 07:24:13;;;;;;;14.07;7.65;;;;;;;23.87;59.48;95131.78;5088855;28;20040;-67
2021/07/07 07:26:40;;;;;;;12.95;8.32;;;;;;;24.02;59.41;95128.69;5088399;28;20044;-67
2021/07/07 07:29:07;;;;;;;20.35;7.82;;;;;;;24.11;59.29;95124.19;5088763;28;20454;-67
2021/07/07 07:31:34;;;;;;;13.38;8.52;;;;;;;24.37;58.42;95134.09;5088309;28;20485;-68
2021/07/07 07:34:01;;;;;;;12.20;8.15;;;;;;;24.40;58.22;95114.84;5088487;28;20044;-67
2021/07/07 07:36:28;;;;;;;11.70;8.10;;;;;;;24.57;58.50;95130.84;5089937;28;20047;-68
2021/07/07 07:39:00;;;;;;;12.38;7.55;;;;;;;24.67;57.76;95123.63;5070012;28;20359;-68
2021/07/07 07:41:33;;;;;;;12.15;7.53;;;;;;;24.82;56.90;95120.50;5087592;28;20059;-67
2021/07/07 07:44:01;;;;;;;18.55;7.57;;;;;;;24.99;56.81;95125.84;5087982;28;20055;-68
2021/07/07 07:46:29;;;;;;;17.30;7.70;;;;;;;25.15;55.43;95135.97;5086924;28;20120;-68
2021/07/07 07:48:59;;;;;;;16.70;7.07;;;;;;;25.31;54.21;95131.75;5087480;28;20063;-67
2021/07/07 07:51:28;;;;;;;13.63;7.70;;;;;;;25.48;53.62;95130.13;5087940;28;20515;-68
2021/07/07 07:53:55;;;;;;;22.35;7.15;;;;;;;25.72;52.82;95141.03;5088124;28;20059;-67
2021/07/07 07:56:22;;;;;;;23.83;7.53;;;;;;;25.76;51.94;95125.94;5088737;28;20036;-68
2021/07/07 07:58:49;;;;;;;15.40;7.90;;;;;;;25.87;52.21;95136.28;5087889;28;20040;-68
2021/07/07 08:01:16;;;;;;;13.70;8.55;;;;;;;25.98;50.71;95137.50;5086806;28;20040;-68
2021/07/07 08:03:43;;;;;;;15.48;7.97;;;;;;;25.90;50.69;95130.31;5086797;28;20051;-68
2021/07/07 08:06:10;;;;;;;23.45;8.23;;;;;;;26.07;51.45;95124.91;5086816;28;20559;-68
2021/07/07 08:08:38;;;;;;;21.58;7.43;;;;;;;26.49;50.18;95138.31;5087676;28;20114;-69
2021/07/07 08:11:05;;;;;;;12.52;7.47;;;;;;;26.73;49.28;95144.91;5087842;28;20040;-68
2021/07/07 08:13:32;;;;;;;10.23;7.43;;;;;;;26.82;48.44;95137.59;5087220;28;20143;-68
2021/07/07 08:15:59;;;;;;;11.50;7.85;;;;;;;27.00;48.22;95132.13;5087675;28;20071;-68
2021/07/07 08:18:26;;;;;;;11.20;7.50;;;;;;;27.32;46.51;95140.50;5087058;28;20055;-68
2021/07/07 08:20:54;;;;;;;10.50;7.13;;;;;;;27.52;46.13;95136.97;5085790;28;20044;-69
2021/07/07 08:23:21;;;;;;;16.20;6.72;;;;;;;27.70;45.79;95136.78;5067933;28;20079;-68
2021/07/07 08:25:49;;;;;;;10.23;6.65;;;;;;;27.89;45.04;95147.72;5102914;28;20050;-69
2021/07/07 08:28:16;;;;;;;13.18;8.98;;;;;;;27.84;44.98;95143.38;5082262;28;20123;-68
2021/07/07 08:30:43;;;;;;;11.13;6.00;;;;;;;28.01;43.50;95141.63;5084738;28;20036;-68
2021/07/07 08:33:10;;;;;;;13.80;6.85;;;;;;;28.19;44.01;95136.81;5086047;28;20052;-68
2021/07/07 08:35:38;;;;;;;14.27;6.30;;;;;;;28.48;43.00;95137.66;5083394;28;20056;-68
2021/07/07 08:38:05;;;;;;;11.40;6.95;;;;;;;28.71;41.95;95141.44;5085352;28;20048;-69
2021/07/07 08:40:32;;;;;;;11.68;6.90;;;;;;;28.89;41.18;95149.22;5097398;27;20178;-69
2021/07/07 08:42:59;;;;;;;18.90;6.68;;;;;;;28.83;41.58;95134.47;5085874;28;20139;-68
2021/07/07 08:45:26;;;;;;;12.35;6.90;;;;;;;28.99;41.50;95140.66;5083707;28;20059;-68
2021/07/07 08:47:53;;;;;;;22.58;7.38;;;;;;;29.09;40.57;95150.91;5084906;28;20056;-68
2021/07/07 08:50:32;;;;;;;13.10;5.80;;;;;;;29.12;41.40;95144.88;5087431;28;20044;-68
2021/07/07 08:53:01;;;;;;;9.07;6.65;;;;;;;29.22;40.26;95153.56;5086073;28;20044;-69
2021/07/07 08:55:29;;;;;;;10.75;6.65;;;;;;;29.20;39.91;95150.47;5085539;28;20048;-68
2021/07/07 08:57:57;;;;;;;10.02;5.88;;;;;;;29.47;40.22;95149.63;5085184;28;20060;-68
2021/07/07 09:00:32;;;;;;;15.20;6.10;;;;;;;29.90;39.26;95156.09;5085561;28;20391;-68
2021/07/07 09:03:10;;;;;;;7.43;6.28;;;;;;;29.93;39.21;95150.03;5085452;28;20075;-69
2021/07/07 09:05:52;;;;;;;8.68;5.35;;;;;;;29.97;38.88;95143.97;5084558;28;20582;-68
2021/07/07 09:08:24;;;;;;;9.75;5.20;;;;;;;30.24;38.18;95153.03;5084316;28;20056;-68
2021/07/07 09:10:51;;;;;;;12.07;5.78;;;;;;;30.49;37.63;95142.88;5084621;28;20047;-68
2021/07/07 09:13:23;;;;;;;10.57;5.80;;;;;;;30.83;37.27;95156.63;5084922;28;20055;-68
2021/07/07 09:15:51;;;;;;;14.77;6.45;;;;;;;31.15;37.41;95156.50;5066614;28;20044;-68
2021/07/07 09:18:33;;;;;;;11.18;5.85;;;;;;;31.37;35.97;95153.09;5087294;28;20048;-68
2021/07/07 09:21:00;;;;;;;15.60;6.15;;;;;;;31.38;36.12;95143.88;5084815;28;20109;-68
2021/07/07 09:23:29;;;;;;;10.15;5.78;;;;;;;31.50;34.85;95151.03;5084952;28;20052;-68
2021/07/07 09:26:04;;;;;;;9.18;5.68;;;;;;;31.37;35.87;95147.72;5085574;28;20074;-69
2021/07/07 09:28:36;;;;;;;9.35;5.40;;;;;;;31.66;37.44;95142.06;5081913;28;20140;-68
2021/07/07 09:31:25;;;;;;;6.13;5.53;;;;;;;32.08;37.01;95147.38;5067354;28;20043;-68
2021/07/07 09:33:52;;;;;;;8.77;5.28;;;;;;;32.27;36.84;95143.03;5074812;28;20060;-68
2021/07/07 09:36:24;;;;;;;6.97;5.00;;;;;;;32.27;37.51;95143.03;5085530;28;20050;-69
2021/07/07 09:38:53;;;;;;;8.60;6.07;;;;;;;32.36;36.69;95146.28;5085909;28;20170;-68
2021/07/07 09:41:20;;;;;;;10.70;5.38;;;;;;;32.22;37.62;95141.44;5085081;28;20036;-68
2021/07/07 09:43:54;;;;;;;7.35;5.85;;;;;;;32.31;37.55;95141.19;5084515;28;20159;-69
2021/07/07 09:46:23;;;;;;;7.38;5.53;;;;;;;32.65;38.51;95146.69;5084485;28;20035;-69
2021/07/07 09:48:51;;;;;;;7.15;5.90;;;;;;;32.42;35.56;95134.03;5084218;28;20048;-68
2021/07/07 09:51:20;;;;;;;6.65;6.05;;;;;;;31.97;36.31;95146.44;5086389;28;20482;-67
2021/07/07 09:53:47;;;;;;;8.52;5.85;;;;;;;31.37;34.25;95153.09;5084706;28;20060;-68
2021/07/07 09:56:13;;;;;;;6.15;5.20;;;;;;;31.91;34.24;95142.47;5087185;28;20032;-68
2021/07/07 09:58:40;;;;;;;9.75;6.60;;;;;;;32.18;33.01;95136.00;5084263;28;20480;-68
2021/07/07 10:01:07;;;;;;;13.00;6.22;;;;;;;32.12;33.62;95142.81;5084444;28;20496;-68
2021/07/07 10:03:35;;;;;;;11.30;5.40;;;;;;;32.33;34.57;95144.28;5085552;28;20134;-67
2021/07/07 10:06:03;;;;;;;5.55;5.03;;;;;;;32.59;34.68;95132.72;5084661;28;20066;-67
2021/07/07 10:08:30;;;;;;;6.25;5.32;;;;;;;32.82;34.99;95146.13;5083518;28;20602;-68
2021/07/07 10:10:58;;;;;;;8.40;5.30;;;;;;;32.65;34.77;95127.81;5083668;28;20489;-68
2021/07/07 10:13:30;;;;;;;11.45;5.70;;;;;;;32.35;36.25;95139.31;5081753;28;20055;-68
2021/07/07 10:15:57;;;;;;;8.40;5.25;;;;;;;31.95;35.43;95124.47;5084756;28;20736;-68
2021/07/07 10:18:24;;;;;;;5.75;4.97;;;;;;;32.35;37.25;95128.53;5081001;28;20044;-68
2021/07/07 10:20:52;;;;;;;7.70;5.22;;;;;;;32.82;33.01;95129.94;5089450;28;20567;-68
2021/07/07 10:23:19;;;;;;;6.32;5.72;;;;;;;33.21;33.91;95129.66;5092919;28;20056;-67
2021/07/07 10:25:59;;;;;;;7.20;4.88;;;;;;;33.50;34.83;95135.31;5093738;28;20043;-68
2021/07/07 10:28:27;;;;;;;7.20;5.55;;;;;;;33.94;32.16;95131.84;5092094;28;20603;-67
2021/07/07 10:30:57;;;;;;;5.68;5.07;;;;;;;34.37;29.88;95126.00;5095729;28;20416;-68
2021/07/07 10:33:31;;;;;;;8.70;5.32;;;;;;;34.63;28.87;95141.22;5090902;28;20056;-68
2021/07/07 10:36:18;;;;;;;8.60;4.43;;;;;;;33.74;31.23;95133.25;5094986;28;20504;-68
2021/07/07 10:38:53;;;;;;;8.85;4.53;;;;;;;33.31;31.22;95134.38;5092798;28;20048;-68
2021/07/07 10:41:42;;;;;;;6.82;4.45;;;;;;;33.41;33.08;95137.56;5092352;28;20040;-68
2021/07/07 10:44:10;;;;;;;5.82;4.53;;;;;;;33.38;32.02;95138.28;5078125;28;20044;-68
2021/07/07 10:47:00;;;;;;;11.43;5.78;;;;;;;33.21;33.51;95135.03;5092019;28;20051;-68
2021/07/07 10:49:30;;;;;;;5.25;4.75;;;;;;;32.91;35.56;95127.72;5093101;28;20094;-68
2021/07/07 10:51:59;;;;;;;9.57;5.60;;;;;;;33.28;35.63;95135.13;5093783;28;20499;-68
2021/07/07 10:54:30;;;;;;;9.90;4.97;;;;;;;34.03;33.24;95131.53;5094701;28;20131;-68
2021/07/07 10:56:58;;;;;;;6.22;4.68;;;;;;;34.58;29.97;95128.06;5094351;28;20436;-68
2021/07/07 11:00:00;;;;;;;6.15;4.55;;;;;;;35.19;28.58;95137.22;5096942;28;20402;-67
2021/07/07 11:02:27;;;;;;;6.22;4.85;;;;;;;35.81;28.50;95135.41;5074108;28;20152;-68
2021/07/07 11:05:01;;;;;;;5.63;4.07;;;;;;;35.77;28.46;95126.50;5107785;27;20057;-68
2021/07/07 11:07:30;;;;;;;;;;;;;;;35.68;31.06;95128.81;5092858;28;20044;-67
2021/07/07 11:10:05;;;;;;;4.25;3.65;;;;;;;35.72;28.43;95121.47;5092320;28;19934;-68
2021/07/07 11:12:35;;;;;;;4.75;4.05;;;;;;;35.56;29.96;95130.72;5088288;28;20409;-68
2021/07/07 11:15:07;;;;;;;5.82;3.92;;;;;;;35.37;28.78;95114.84;5093559;28;20531;-67
2021/07/07 11:17:39;;;;;;;5.82;3.97;;;;;;;34.91;27.63;95131.69;5092423;28;20529;-67
2021/07/07 11:20:10;;;;;;;12.23;3.97;;;;;;;34.34;29.26;95127.53;5094086;28;20040;-67
2021/07/07 11:22:39;;;;;;;5.32;3.40;;;;;;;33.99;30.83;95118.00;5092004;28;20054;-68
2021/07/07 11:25:08;;;;;;;3.95;3.53;;;;;;;33.54;30.84;95125.31;5093652;28;20058;-67
2021/07/07 11:27:36;;;;;;;4.00;3.60;;;;;;;33.89;30.71;95124.13;5089405;28;20048;-67
2021/07/07 11:30:07;;;;;;;4.30;3.80;;;;;;;33.72;29.66;95120.88;5087869;28;20056;-67